Time;durP1;ratioP1;P1;durP2;ratioP2;P2;SDS_P1;SDS_P2;PMS_P1;PMS_P2;Temp;Humidity;BMP_temperature;BMP_pressure;BME280_temperature;BME280_humidity;BME280_pressure;Samples;Min_cycle;Max_cycle;Signal;HPM_P1;HPM_P2
2023/12/31 00:02:20;;;;;;;27.40;22.80;;;;;;;4.11;100.00;98944.34;109441;1252;65158;-74
2023/12/31 00:04:46;;;;;;;29.60;22.70;;;;;;;4.03;100.00;98943.30;109455;1253;59068;-74
2023/12/31 00:07:13;;;;;;;29.20;23.40;;;;;;;3.93;100.00;98940.30;109296;1254;59022;-74
2023/12/31 00:09:39;;;;;;;33.30;23.80;;;;;;;3.87;100.00;98940.08;109447;1253;66085;-74
2023/12/31 00:12:09;;;;;;;29.60;23.70;;;;;;;3.81;100.00;98939.96;109440;1253;61235;-75
2023/12/31 00:14:37;;;;;;;32.80;25.10;;;;;;;3.76;100.00;98944.38;109466;1253;62879;-74
2023/12/31 00:17:04;;;;;;;30.60;24.10;;;;;;;3.72;100.00;98949.60;109486;1253;58928;-75
2023/12/31 00:19:30;;;;;;;31.00;25.20;;;;;;;3.70;100.00;98947.39;108732;1252;1002441;-75
2023/12/31 00:21:57;;;;;;;29.60;24.10;;;;;;;3.71;100.00;98950.18;109464;1253;67005;-75
2023/12/31 00:24:24;;;;;;;32.40;25.50;;;;;;;3.72;100.00;98952.42;109510;1253;60043;-74
2023/12/31 00:26:50;;;;;;;30.00;24.50;;;;;;;3.72;100.00;98955.78;109474;1252;65360;-74
2023/12/31 00:29:17;;;;;;;32.80;24.00;;;;;;;3.73;100.00;98954.15;109448;1253;59313;-74
2023/12/31 00:31:43;;;;;;;33.90;25.20;;;;;;;3.76;100.00;98955.44;109445;1252;59005;-74
2023/12/31 00:34:11;;;;;;;33.40;26.10;;;;;;;3.78;100.00;98953.77;109471;1253;65971;-75
2023/12/31 00:36:38;;;;;;;34.60;28.30;;;;;;;3.79;100.00;98946.55;109483;1252;60012;-75
2023/12/31 00:39:05;;;;;;;37.30;30.10;;;;;;;3.80;100.00;98941.77;109455;1253;64217;-75
2023/12/31 00:41:31;;;;;;;35.50;28.10;;;;;;;3.81;100.00;98943.27;109450;1252;58965;-74
2023/12/31 00:43:58;;;;;;;33.90;28.30;;;;;;;3.80;100.00;98939.48;109427;1252;58902;-74
2023/12/31 00:46:25;;;;;;;29.30;23.60;;;;;;;3.76;100.00;98945.77;109477;1253;67062;-75
2023/12/31 00:48:51;;;;;;;35.40;27.40;;;;;;;3.68;100.00;98950.31;109444;1252;61679;-75
2023/12/31 00:51:18;;;;;;;28.90;23.90;;;;;;;3.56;100.00;98956.23;109313;1254;65062;-75
2023/12/31 00:53:44;;;;;;;30.40;24.00;;;;;;;3.48;100.00;98954.95;109479;1252;59028;-74
2023/12/31 00:56:11;;;;;;;30.20;25.20;;;;;;;3.44;100.00;98961.06;109419;1252;59214;-75
2023/12/31 00:58:37;;;;;;;33.80;25.90;;;;;;;3.42;100.00;98962.23;109521;1252;66541;-75
2023/12/31 01:01:04;;;;;;;32.40;25.70;;;;;;;3.41;100.00;98961.88;109480;1252;60605;-74
2023/12/31 01:03:33;;;;;;;30.30;25.60;;;;;;;3.41;100.00;98961.22;109463;1253;64843;-74
2023/12/31 01:06:06;;;;;;;27.80;24.00;;;;;;;3.39;100.00;98957.60;109454;1253;59032;-75
2023/12/31 01:08:33;;;;;;;34.20;27.80;;;;;;;3.36;100.00;98948.92;109433;1252;59050;-75
2023/12/31 01:11:00;;;;;;;34.10;27.50;;;;;;;3.35;100.00;98948.97;109461;1252;67127;-75
2023/12/31 01:13:27;;;;;;;33.70;26.10;;;;;;;3.32;100.00;98947.13;109456;1252;61024;-74
2023/12/31 01:15:54;;;;;;;34.90;27.00;;;;;;;3.28;100.00;98947.83;109460;1252;62830;-74
2023/12/31 01:18:21;;;;;;;38.00;28.90;;;;;;;3.21;100.00;98944.77;109487;1252;59270;-75
2023/12/31 01:20:47;;;;;;;36.40;29.50;;;;;;;3.13;100.00;98944.02;109477;1252;59025;-75
2023/12/31 01:23:14;;;;;;;38.30;30.50;;;;;;;3.06;100.00;98941.45;109357;1253;66111;-74
2023/12/31 01:25:42;;;;;;;38.90;31.30;;;;;;;2.99;100.00;98940.45;109462;1252;61131;-74
2023/12/31 01:28:08;;;;;;;32.60;27.10;;;;;;;2.93;100.00;98942.79;109489;1252;65063;-74
2023/12/31 01:30:35;;;;;;;32.00;25.80;;;;;;;2.87;100.00;98940.23;109462;1252;59361;-74
2023/12/31 01:33:02;;;;;;;38.40;29.10;;;;;;;2.80;100.00;98934.52;109480;1252;58917;-74
2023/12/31 01:35:29;;;;;;;29.30;24.20;;;;;;;2.75;100.00;98940.30;109462;1253;66785;-74
2023/12/31 01:37:56;;;;;;;33.20;27.20;;;;;;;2.70;100.00;98944.00;109507;1252;60993;-75
2023/12/31 01:40:22;;;;;;;36.20;29.60;;;;;;;2.62;100.00;98939.55;109501;1252;65312;-74
2023/12/31 01:42:49;;;;;;;36.40;29.20;;;;;;;2.56;100.00;98939.41;109420;1252;59017;-75
2023/12/31 01:45:16;;;;;;;44.60;33.20;;;;;;;2.50;100.00;98938.39;109436;1252;58937;-75
2023/12/31 01:47:43;;;;;;;47.40;36.40;;;;;;;2.46;100.00;98933.64;109465;1252;66047;-74
2023/12/31 01:50:12;;;;;;;53.40;38.60;;;;;;;2.43;100.00;98930.02;109497;1252;60013;-74
2023/12/31 01:52:41;;;;;;;49.20;37.70;;;;;;;2.40;100.00;98931.86;109441;1252;64904;-75
2023/12/31 01:55:08;;;;;;;57.50;42.30;;;;;;;2.39;100.00;98933.16;109482;1252;59043;-75
2023/12/31 01:57:37;;;;;;;59.10;46.50;;;;;;;2.36;100.00;98928.00;109488;1252;59214;-75
2023/12/31 02:00:06;;;;;;;65.20;48.20;;;;;;;2.34;100.00;98930.88;108680;1254;1002472;-74
2023/12/31 02:02:33;;;;;;;60.50;45.90;;;;;;;2.32;100.00;98936.92;109502;1253;60999;-74
2023/12/31 02:05:00;;;;;;;72.10;51.90;;;;;;;2.29;100.00;98936.31;109494;1253;64023;-75
2023/12/31 02:07:27;;;;;;;72.80;52.90;;;;;;;2.25;100.00;98936.95;109476;1252;59058;-74
2023/12/31 02:09:54;;;;;;;74.00;56.90;;;;;;;2.22;100.00;98938.98;109330;1252;59291;-74
2023/12/31 02:12:22;;;;;;;76.70;57.30;;;;;;;2.21;100.00;98937.46;109477;1252;65968;-75
2023/12/31 02:14:48;;;;;;;68.40;52.00;;;;;;;2.19;100.00;98938.92;109342;1252;61200;-74
2023/12/31 02:17:15;;;;;;;68.00;49.90;;;;;;;2.17;100.00;98938.65;109445;1252;65339;-74
2023/12/31 02:19:41;;;;;;;69.30;51.50;;;;;;;2.13;100.00;98934.41;109461;1252;59068;-74
2023/12/31 02:22:08;;;;;;;66.60;50.20;;;;;;;2.10;100.00;98934.68;109515;1252;58933;-74
2023/12/31 02:24:44;;;;;;;67.30;48.50;;;;;;;2.06;100.00;98934.80;109454;1253;65988;-74
2023/12/31 02:27:10;;;;;;;74.60;54.30;;;;;;;2.02;100.00;98931.24;109490;1252;60172;-74
2023/12/31 02:29:37;;;;;;;70.70;54.60;;;;;;;1.99;100.00;98924.17;109450;1252;65123;-74
2023/12/31 02:32:04;;;;;;;78.30;54.50;;;;;;;1.95;100.00;98919.73;109427;1252;58964;-74
2023/12/31 02:34:31;;;;;;;71.50;52.10;;;;;;;1.93;100.00;98917.71;109484;1252;58947;-74
2023/12/31 02:36:58;;;;;;;70.80;48.50;;;;;;;1.90;100.00;98919.91;109531;1252;65974;-74
2023/12/31 02:39:25;;;;;;;64.10;48.60;;;;;;;1.85;100.00;98916.75;109466;1252;61186;-75
2023/12/31 02:41:52;;;;;;;68.90;49.90;;;;;;;1.79;100.00;98916.42;109468;1252;64013;-74
2023/12/31 02:44:18;;;;;;;72.90;52.60;;;;;;;1.74;100.00;98915.69;109465;1252;59283;-74
2023/12/31 02:46:45;;;;;;;74.90;55.00;;;;;;;1.71;100.00;98916.85;109494;1252;58866;-74
2023/12/31 02:49:12;;;;;;;64.50;48.20;;;;;;;1.70;100.00;98910.94;109512;1252;67277;-74
2023/12/31 02:51:38;;;;;;;59.70;43.50;;;;;;;1.68;100.00;98911.89;109482;1252;60153;-74
2023/12/31 02:54:05;;;;;;;56.40;43.20;;;;;;;1.63;100.00;98910.30;109515;1253;63975;-73
2023/12/31 02:56:38;;;;;;;56.70;40.90;;;;;;;1.57;100.00;98910.83;109477;1252;59081;-74
2023/12/31 02:59:05;;;;;;;69.70;49.40;;;;;;;1.51;100.00;98909.09;109504;1252;58848;-74
2023/12/31 03:01:32;;;;;;;135.80;48.70;;;;;;;1.48;100.00;98910.23;109160;1252;64807;-74
2023/12/31 03:03:58;;;;;;;68.00;48.80;;;;;;;1.46;100.00;98907.16;109477;1252;60982;-74
2023/12/31 03:06:29;;;;;;;63.30;45.10;;;;;;;1.42;100.00;98907.98;109546;1253;65269;-74
2023/12/31 03:08:58;;;;;;;;;;;;;;;1.37;100.00;98908.31;109446;1253;59399;-74
2023/12/31 03:11:25;;;;;;;53.70;38.50;;;;;;;1.34;100.00;98905.77;109498;1252;58972;-75
2023/12/31 03:13:52;;;;;;;51.40;37.90;;;;;;;1.30;100.00;98910.42;109496;1253;65981;-75
2023/12/31 03:16:19;;;;;;;52.70;39.00;;;;;;;1.25;100.00;98909.89;109498;1252;60099;-75
2023/12/31 03:18:45;;;;;;;49.90;37.60;;;;;;;1.17;100.00;98911.35;109432;1253;64203;-75
2023/12/31 03:21:16;;;;;;;52.80;38.40;;;;;;;1.10;100.00;98910.00;109481;1252;58962;-75
2023/12/31 03:23:42;;;;;;;;;;;;;;;1.02;100.00;98909.02;107958;1252;1002501;-74
2023/12/31 03:26:09;;;;;;;43.60;32.90;;;;;;;0.93;100.00;98916.27;109501;1252;67093;-75
2023/12/31 03:28:36;;;;;;;46.30;31.70;;;;;;;0.87;100.00;98920.98;109529;1252;61111;-74
2023/12/31 03:31:03;;;;;;;40.60;30.80;;;;;;;0.80;100.00;98922.94;109450;1252;65392;-75
2023/12/31 03:33:31;;;;;;;46.90;33.80;;;;;;;0.74;100.00;98924.52;109412;1252;58981;-75
2023/12/31 03:35:57;;;;;;;50.50;36.40;;;;;;;0.68;100.00;98926.25;109468;1253;58894;-75
2023/12/31 03:38:24;;;;;;;67.10;46.90;;;;;;;0.65;100.00;98924.76;109369;1254;67001;-75
2023/12/31 03:40:50;;;;;;;57.40;42.10;;;;;;;0.68;100.00;98923.29;109494;1252;61011;-74
2023/12/31 03:43:17;;;;;;;62.10;43.50;;;;;;;0.72;100.00;98923.88;109449;1252;63836;-74
2023/12/31 03:45:43;;;;;;;68.10;46.70;;;;;;;0.72;100.00;98926.14;109463;1252;58927;-74
2023/12/31 03:48:10;;;;;;;60.90;43.60;;;;;;;0.75;100.00;98926.41;109467;1253;58874;-74
2023/12/31 03:50:37;;;;;;;58.50;44.10;;;;;;;0.72;100.00;98927.38;109485;1252;65972;-74
2023/12/31 03:53:03;;;;;;;61.80;44.20;;;;;;;0.68;100.00;98927.66;109192;1252;60643;-73
2023/12/31 03:55:30;;;;;;;56.70;42.40;;;;;;;0.65;100.00;98925.64;109489;1253;65035;-74
2023/12/31 03:57:56;;;;;;;57.40;40.90;;;;;;;0.61;100.00;98927.50;109519;1252;58941;-74
2023/12/31 04:00:23;;;;;;;64.40;46.30;;;;;;;0.56;100.00;98923.27;109519;1252;59109;-74
2023/12/31 04:02:49;;;;;;;60.20;45.20;;;;;;;0.52;100.00;98921.10;109520;1252;67051;-74
2023/12/31 04:05:16;;;;;;;61.70;43.80;;;;;;;0.50;100.00;98919.77;109530;1254;61021;-74
2023/12/31 04:07:43;;;;;;;64.80;47.60;;;;;;;0.47;100.00;98920.90;109495;1252;64995;-74
2023/12/31 04:10:09;;;;;;;62.70;43.90;;;;;;;0.46;100.00;98920.23;109463;1252;59096;-74
2023/12/31 04:12:36;;;;;;;64.70;46.80;;;;;;;0.43;100.00;98919.94;109493;1252;58979;-74
2023/12/31 04:15:06;;;;;;;62.60;44.60;;;;;;;0.39;100.00;98917.44;109181;1252;73370;-74
2023/12/31 04:17:32;;;;;;;;;;;;;;;0.37;100.00;98921.51;109496;1252;61120;-74
2023/12/31 04:19:59;;;;;;;98.50;46.20;;;;;;;0.35;100.00;98918.05;109437;1252;59042;-74
2023/12/31 04:22:25;;;;;;;67.60;48.60;;;;;;;0.35;100.00;98915.79;109462;1252;59190;-74
2023/12/31 04:24:52;;;;;;;86.70;49.60;;;;;;;0.36;100.00;98917.34;109509;1254;59020;-74
2023/12/31 04:27:19;;;;;;;69.60;47.90;;;;;;;0.35;100.00;98918.59;109475;1252;66034;-74
2023/12/31 04:29:46;;;;;;;62.00;44.30;;;;;;;0.34;100.00;98917.22;109450;1252;61236;-74
2023/12/31 04:32:12;;;;;;;64.60;45.40;;;;;;;0.34;100.00;98914.43;109464;1253;65267;-74
2023/12/31 04:34:39;;;;;;;59.60;44.10;;;;;;;0.34;100.00;98918.10;109439;1253;58954;-74
2023/12/31 04:37:06;;;;;;;63.70;45.30;;;;;;;0.33;100.00;98918.99;109533;1252;58866;-75
2023/12/31 04:39:32;;;;;;;59.90;45.30;;;;;;;0.32;100.00;98919.21;109468;1254;65951;-74
2023/12/31 04:41:59;;;;;;;60.40;46.40;;;;;;;0.31;100.00;98914.88;109478;1252;60252;-75
2023/12/31 04:44:25;;;;;;;62.10;48.30;;;;;;;0.30;100.00;98911.39;109456;1252;64899;-75
2023/12/31 04:46:52;;;;;;;67.40;48.90;;;;;;;0.34;100.00;98908.67;109471;1252;59409;-73
2023/12/31 04:49:19;;;;;;;64.00;46.30;;;;;;;0.35;100.00;98903.23;109449;1252;59006;-74
2023/12/31 04:51:45;;;;;;;67.30;47.40;;;;;;;0.33;100.00;98905.19;109495;1253;67012;-74
2023/12/31 04:54:12;;;;;;;64.00;47.90;;;;;;;0.34;100.00;98902.88;109508;1252;61196;-74
2023/12/31 04:56:38;;;;;;;60.50;44.60;;;;;;;0.38;100.00;98902.09;109464;1252;65183;-73
2023/12/31 04:59:05;;;;;;;58.90;46.30;;;;;;;0.47;100.00;98902.19;109489;1252;59278;-73
2023/12/31 05:01:31;;;;;;;68.10;52.50;;;;;;;0.53;100.00;98902.91;109463;1254;59092;-73
2023/12/31 05:03:59;;;;;;;72.00;52.30;;;;;;;0.56;100.00;98898.80;109462;1253;67484;-74
2023/12/31 05:06:26;;;;;;;71.60;53.00;;;;;;;0.57;100.00;98899.11;109527;1253;61032;-73
2023/12/31 05:08:53;;;;;;;69.20;52.40;;;;;;;0.60;100.00;98902.70;109514;1253;65172;-74
2023/12/31 05:11:19;;;;;;;76.90;58.60;;;;;;;0.65;100.00;98899.25;109452;1252;58998;-74
2023/12/31 05:13:46;;;;;;;70.40;51.20;;;;;;;0.73;100.00;98892.35;109491;1252;59061;-74
2023/12/31 05:16:14;;;;;;;76.90;54.10;;;;;;;0.83;100.00;98893.10;109503;1253;66895;-74
2023/12/31 05:18:43;;;;;;;76.90;54.70;;;;;;;0.89;100.00;98889.64;109533;1252;59928;-74
2023/12/31 05:21:10;;;;;;;84.00;52.60;;;;;;;0.92;100.00;98889.20;109469;1252;63847;-74
2023/12/31 05:23:37;;;;;;;79.90;45.80;;;;;;;0.97;100.00;98888.16;109471;1252;58960;-74
2023/12/31 05:26:03;;;;;;;89.00;41.20;;;;;;;1.02;100.00;98885.75;109460;1256;58872;-74
2023/12/31 05:28:30;;;;;;;106.90;43.60;;;;;;;1.04;100.00;98884.45;109506;1253;67062;-74
2023/12/31 05:30:57;;;;;;;82.70;41.20;;;;;;;1.04;100.00;98883.73;109561;1253;60008;-74
2023/12/31 05:33:23;;;;;;;71.00;39.00;;;;;;;1.03;100.00;98882.73;109494;1252;64992;-74
2023/12/31 05:35:50;;;;;;;65.40;39.60;;;;;;;1.01;100.00;98881.25;109454;1253;59029;-74
2023/12/31 05:38:17;;;;;;;78.60;42.00;;;;;;;0.97;100.00;98879.77;109502;1253;58836;-74
2023/12/31 05:40:43;;;;;;;68.90;39.80;;;;;;;0.95;100.00;98877.90;109460;1254;67021;-74
2023/12/31 05:43:10;;;;;;;95.50;41.10;;;;;;;0.93;100.00;98872.89;109518;1253;60724;-74
2023/12/31 05:45:38;;;;;;;80.40;39.40;;;;;;;0.92;100.00;98869.79;109433;1252;63691;-74
2023/12/31 05:48:05;;;;;;;84.40;36.90;;;;;;;0.90;100.00;98866.17;109440;1252;59309;-74
2023/12/31 05:50:31;;;;;;;73.10;36.00;;;;;;;0.90;100.00;98866.36;109494;1254;58886;-75
2023/12/31 05:52:58;;;;;;;76.80;37.10;;;;;;;0.89;100.00;98862.70;109340;1252;65991;-74
2023/12/31 05:55:24;;;;;;;72.20;38.80;;;;;;;0.89;100.00;98857.62;109514;1252;60237;-74
2023/12/31 05:57:51;;;;;;;78.90;38.70;;;;;;;0.89;100.00;98855.19;109488;1252;65094;-74
2023/12/31 06:00:18;;;;;;;58.40;39.10;;;;;;;0.86;100.00;98849.67;109535;1252;59042;-74
2023/12/31 06:02:44;;;;;;;67.20;41.90;;;;;;;0.84;100.00;98849.36;109514;1253;58905;-75
2023/12/31 06:05:11;;;;;;;69.30;42.10;;;;;;;0.84;100.00;98845.86;109519;1252;66011;-74
2023/12/31 06:07:37;;;;;;;63.00;43.60;;;;;;;0.84;100.00;98846.58;109564;1252;60997;-74
2023/12/31 06:10:07;;;;;;;60.00;40.20;;;;;;;0.82;100.00;98843.98;109496;1252;64084;-73
2023/12/31 06:12:34;;;;;;;58.80;40.60;;;;;;;0.80;100.00;98840.05;109473;1253;59040;-75
2023/12/31 06:15:05;;;;;;;56.50;38.80;;;;;;;0.78;100.00;98834.88;108713;1253;1002193;-74
2023/12/31 06:17:33;;;;;;;61.50;42.20;;;;;;;0.76;100.00;98833.01;109438;1253;67558;-74
2023/12/31 06:20:01;;;;;;;56.00;40.40;;;;;;;0.74;100.00;98830.09;109499;1254;61181;-75
2023/12/31 06:22:27;;;;;;;64.50;45.50;;;;;;;0.75;100.00;98823.42;109433;1252;65046;-75
2023/12/31 06:24:54;;;;;;;73.20;50.00;;;;;;;0.73;100.00;98825.04;109466;1253;59102;-74
2023/12/31 06:27:20;;;;;;;78.30;50.60;;;;;;;0.72;100.00;98825.77;109240;1254;59062;-74
2023/12/31 06:29:47;;;;;;;78.40;51.90;;;;;;;0.72;100.00;98824.55;109481;1253;67024;-73
2023/12/31 06:32:14;;;;;;;77.60;51.60;;;;;;;0.74;100.00;98822.58;109487;1252;60093;-73
2023/12/31 06:34:40;;;;;;;85.40;55.50;;;;;;;0.75;100.00;98821.49;109500;1254;65236;-73
2023/12/31 06:37:07;;;;;;;76.50;52.60;;;;;;;0.75;100.00;98821.66;109353;1252;58952;-74
2023/12/31 06:39:33;;;;;;;71.00;49.30;;;;;;;0.75;100.00;98822.52;109503;1252;58957;-74
2023/12/31 06:42:00;;;;;;;64.70;45.30;;;;;;;0.75;100.00;98821.30;109504;1253;66127;-74
2023/12/31 06:44:28;;;;;;;67.40;46.80;;;;;;;0.75;100.00;98820.77;109507;1252;59808;-74
2023/12/31 06:46:55;;;;;;;65.00;44.90;;;;;;;0.77;100.00;98815.33;109481;1253;64742;-73
2023/12/31 06:49:21;;;;;;;68.90;45.70;;;;;;;0.78;100.00;98813.71;109263;1254;59049;-74
2023/12/31 06:51:48;;;;;;;59.70;41.80;;;;;;;0.80;100.00;98815.23;109470;1253;58965;-74
2023/12/31 06:54:15;;;;;;;54.60;38.60;;;;;;;0.81;100.00;98813.78;109451;1252;65921;-75
2023/12/31 06:56:41;;;;;;;56.60;39.50;;;;;;;0.84;100.00;98810.19;109409;1252;61083;-75
2023/12/31 06:59:08;;;;;;;53.70;38.40;;;;;;;0.89;100.00;98807.61;109108;1252;64070;-74
2023/12/31 07:01:34;;;;;;;53.70;38.60;;;;;;;0.92;100.00;98805.77;109395;1252;59202;-74
2023/12/31 07:04:01;;;;;;;53.60;38.20;;;;;;;0.95;100.00;98804.63;109228;1253;59402;-74
2023/12/31 07:06:27;;;;;;;53.90;41.00;;;;;;;0.97;100.00;98804.04;109402;1252;66102;-74
2023/12/31 07:08:54;;;;;;;53.80;39.40;;;;;;;0.99;100.00;98798.20;109412;1252;61122;-75
2023/12/31 07:11:20;;;;;;;51.60;38.50;;;;;;;1.02;100.00;98796.17;109425;1253;63955;-74
2023/12/31 07:13:47;;;;;;;47.30;37.20;;;;;;;1.07;100.00;98793.92;109406;1252;59018;-74
2023/12/31 07:16:14;;;;;;;52.00;37.90;;;;;;;1.13;100.00;98796.73;109443;1253;59782;-73
2023/12/31 07:18:41;;;;;;;49.90;35.90;;;;;;;1.16;100.00;98792.04;109472;1252;67226;-73
2023/12/31 07:21:07;;;;;;;47.90;36.50;;;;;;;1.20;100.00;98790.00;109440;1253;61451;-74
2023/12/31 07:23:35;;;;;;;46.70;35.30;;;;;;;1.25;100.00;98785.84;109421;1253;64005;-75
2023/12/31 07:26:04;;;;;;;48.90;34.80;;;;;;;1.29;100.00;98787.23;109219;1252;59028;-74
2023/12/31 07:28:31;;;;;;;46.20;34.30;;;;;;;1.34;100.00;98782.04;109408;1252;59047;-75
2023/12/31 07:30:57;;;;;;;44.40;34.80;;;;;;;1.38;100.00;98775.07;109444;1253;65962;-74
2023/12/31 07:33:24;;;;;;;49.60;36.30;;;;;;;1.43;100.00;98771.05;109437;1252;61117;-74
2023/12/31 07:35:50;;;;;;;46.80;36.00;;;;;;;1.49;100.00;98763.33;109178;1257;64085;-75
2023/12/31 07:38:17;;;;;;;51.00;39.00;;;;;;;1.53;100.00;98761.95;109482;1252;59012;-75
2023/12/31 07:40:44;;;;;;;54.20;44.00;;;;;;;1.60;100.00;98763.48;109489;1252;59011;-75
2023/12/31 07:43:11;;;;;;;57.00;46.30;;;;;;;1.65;100.00;98761.02;109497;1252;67035;-75
2023/12/31 07:45:37;;;;;;;48.00;38.20;;;;;;;1.68;100.00;98758.45;109494;1253;60060;-75
2023/12/31 07:48:08;;;;;;;53.10;39.00;;;;;;;1.71;100.00;98756.61;109481;1253;65174;-75
2023/12/31 07:50:35;;;;;;;50.60;36.30;;;;;;;1.73;100.00;98749.86;109425;1254;59003;-76
2023/12/31 07:53:02;;;;;;;46.60;36.00;;;;;;;1.74;100.00;98748.09;109479;1254;59055;-74
2023/12/31 07:55:28;;;;;;;47.10;35.90;;;;;;;1.77;100.00;98745.04;109493;1254;66981;-75
2023/12/31 07:57:55;;;;;;;53.00;38.80;;;;;;;1.79;100.00;98741.98;109459;1252;60056;-74
2023/12/31 08:00:21;;;;;;;51.10;39.10;;;;;;;1.80;100.00;98739.85;109449;1254;63959;-75
2023/12/31 08:02:48;;;;;;;47.40;37.30;;;;;;;1.82;100.00;98737.13;109478;1252;58971;-75
2023/12/31 08:05:15;;;;;;;52.20;39.90;;;;;;;1.85;100.00;98735.64;109463;1253;58964;-75
2023/12/31 08:07:42;;;;;;;50.10;39.00;;;;;;;1.88;100.00;98731.84;109491;1253;67273;-75
2023/12/31 08:10:11;;;;;;;54.80;39.30;;;;;;;1.90;100.00;98730.70;109476;1252;61041;-75
2023/12/31 08:12:37;;;;;;;56.50;43.30;;;;;;;1.94;100.00;98731.63;109443;1254;65020;-74
2023/12/31 08:15:05;;;;;;;58.00;43.90;;;;;;;1.98;100.00;98726.39;109441;1253;59241;-74
2023/12/31 08:17:32;;;;;;;49.80;40.60;;;;;;;2.03;100.00;98728.33;109471;1254;61336;-74
2023/12/31 08:19:58;;;;;;;52.90;41.20;;;;;;;2.07;100.00;98726.61;109457;1253;67076;-74
2023/12/31 08:22:27;;;;;;;59.70;47.80;;;;;;;2.12;100.00;98720.98;109429;1256;60108;-74
2023/12/31 08:24:53;;;;;;;61.80;55.00;;;;;;;2.18;100.00;98719.49;109473;1252;65000;-74
2023/12/31 08:27:20;;;;;;;51.10;45.50;;;;;;;2.25;100.00;98715.95;109460;1254;59247;-73
2023/12/31 08:29:46;;;;;;;52.10;45.00;;;;;;;2.30;100.00;98719.60;109492;1252;59200;-74
2023/12/31 08:32:13;;;;;;;46.20;39.80;;;;;;;2.35;100.00;98715.38;109486;1253;66963;-74
2023/12/31 08:34:40;;;;;;;46.40;39.50;;;;;;;2.42;100.00;98713.91;109277;1254;59431;-73
2023/12/31 08:37:06;;;;;;;42.70;35.50;;;;;;;2.47;100.00;98713.70;109470;1254;65029;-75
2023/12/31 08:39:37;;;;;;;45.20;39.80;;;;;;;2.50;100.00;98712.69;109359;1253;59381;-74
2023/12/31 08:42:03;;;;;;;45.40;38.00;;;;;;;2.53;100.00;98714.14;109526;1252;58894;-75
2023/12/31 08:44:30;;;;;;;42.50;34.60;;;;;;;2.57;100.00;98711.20;108460;1253;1002298;-75
2023/12/31 08:46:57;;;;;;;45.70;37.60;;;;;;;2.60;100.00;98714.77;109466;1253;69041;-74
2023/12/31 08:49:26;;;;;;;46.00;38.50;;;;;;;2.63;100.00;98716.77;109453;1253;65245;-75
2023/12/31 08:51:54;;;;;;;43.60;36.90;;;;;;;2.66;100.00;98715.95;109452;1253;59129;-75
2023/12/31 08:54:20;;;;;;;45.20;38.30;;;;;;;2.70;100.00;98715.80;109514;1253;59386;-74
2023/12/31 08:56:48;;;;;;;47.10;39.30;;;;;;;2.75;100.00;98715.58;109143;1254;67001;-75
2023/12/31 08:59:14;;;;;;;46.00;38.10;;;;;;;2.83;100.00;98709.11;109473;1253;60216;-76
2023/12/31 09:01:41;;;;;;;44.80;37.20;;;;;;;2.91;100.00;98710.36;109481;1254;65098;-74
2023/12/31 09:04:07;;;;;;;45.00;35.70;;;;;;;2.99;100.00;98710.74;109488;1253;58972;-74
2023/12/31 09:06:34;;;;;;;47.80;41.50;;;;;;;3.06;100.00;98706.09;109356;1253;59026;-75
2023/12/31 09:09:00;;;;;;;52.40;45.10;;;;;;;3.12;100.00;98703.38;109494;1254;67183;-75
2023/12/31 09:11:27;;;;;;;50.50;44.90;;;;;;;3.19;100.00;98695.70;109477;1253;59763;-73
2023/12/31 09:13:53;;;;;;;46.30;39.00;;;;;;;3.27;100.00;98697.30;109354;1254;63942;-75
2023/12/31 09:16:20;;;;;;;45.50;38.80;;;;;;;3.34;100.00;98696.33;109457;1253;59005;-74
2023/12/31 09:18:47;;;;;;;41.50;35.90;;;;;;;3.41;100.00;98691.64;109530;1254;59123;-73
2023/12/31 09:21:13;;;;;;;40.10;32.00;;;;;;;3.46;100.00;98688.61;109518;1254;67020;-74
2023/12/31 09:23:40;;;;;;;36.10;31.30;;;;;;;3.51;100.00;98683.62;109463;1253;60365;-75
2023/12/31 09:26:06;;;;;;;39.10;32.70;;;;;;;3.57;100.00;98679.88;109479;1253;65211;-75
2023/12/31 09:28:33;;;;;;;35.30;30.60;;;;;;;3.62;100.00;98678.94;109302;1253;58996;-75
2023/12/31 09:30:59;;;;;;;42.50;33.20;;;;;;;3.69;100.00;98675.45;109526;1253;59663;-75
2023/12/31 09:33:26;;;;;;;37.30;29.60;;;;;;;3.81;100.00;98671.59;109488;1253;67103;-75
2023/12/31 09:35:52;;;;;;;33.80;29.10;;;;;;;3.93;100.00;98666.16;109495;1253;61095;-75
2023/12/31 09:38:19;;;;;;;39.00;31.30;;;;;;;4.03;100.00;98658.33;109455;1254;65044;-75
2023/12/31 09:40:46;;;;;;;38.00;31.40;;;;;;;4.12;100.00;98653.15;109479;1254;58952;-74
2023/12/31 09:43:21;;;;;;;34.60;29.70;;;;;;;4.23;100.00;98649.48;109025;1255;59126;-76
2023/12/31 09:45:48;;;;;;;39.70;31.90;;;;;;;4.34;100.00;98644.73;109181;1255;66029;-75
2023/12/31 09:48:15;;;;;;;56.50;47.40;;;;;;;4.45;100.00;98641.42;109208;1257;60187;-75
2023/12/31 09:50:42;;;;;;;54.80;48.40;;;;;;;4.58;100.00;98640.77;109193;1257;65277;-75
2023/12/31 09:53:12;;;;;;;38.10;32.20;;;;;;;4.73;100.00;98628.97;109152;1255;59105;-78
2023/12/31 09:55:38;;;;;;;49.30;43.40;;;;;;;4.83;100.00;98624.06;109172;1256;59106;-74
2023/12/31 09:58:06;;;;;;;49.00;40.60;;;;;;;4.88;100.00;98623.83;109207;1255;67133;-75
2023/12/31 10:00:32;;;;;;;44.80;38.00;;;;;;;4.95;100.00;98625.09;109196;1256;61211;-76
2023/12/31 10:03:01;;;;;;;45.90;40.80;;;;;;;5.00;100.00;98622.86;109180;1255;64122;-75
2023/12/31 10:05:30;;;;;;;52.60;47.10;;;;;;;5.08;100.00;98618.61;109206;1257;58976;-74
2023/12/31 10:07:57;;;;;;;38.20;31.00;;;;;;;5.17;100.00;98614.64;109219;1254;59719;-74
2023/12/31 10:10:26;;;;;;;35.20;29.70;;;;;;;5.22;100.00;98608.72;109208;1256;66153;-75
2023/12/31 10:12:53;;;;;;;34.70;29.60;;;;;;;5.27;100.00;98608.84;109198;1257;60313;-74
2023/12/31 10:15:20;;;;;;;31.50;27.90;;;;;;;5.31;100.00;98608.81;109174;1257;65388;-74
2023/12/31 10:17:47;;;;;;;33.30;28.10;;;;;;;5.35;100.00;98604.90;109181;1255;59088;-75
2023/12/31 10:20:14;;;;;;;30.00;26.00;;;;;;;5.37;100.00;98605.16;109180;1255;59039;-75
2023/12/31 10:22:40;;;;;;;32.90;27.60;;;;;;;5.42;100.00;98601.88;109219;1257;67086;-75
2023/12/31 10:25:14;;;;;;;35.20;28.90;;;;;;;5.52;100.00;98598.22;109240;1256;61004;-74
2023/12/31 10:27:47;;;;;;;32.70;27.30;;;;;;;5.58;100.00;98594.36;109194;1256;62802;-75
2023/12/31 10:30:14;;;;;;;32.40;25.90;;;;;;;5.62;100.00;98586.73;109057;1257;59130;-74
2023/12/31 10:32:44;;;;;;;28.80;25.80;;;;;;;5.65;100.00;98576.52;108993;1260;59147;-75
2023/12/31 10:35:10;;;;;;;33.00;27.60;;;;;;;5.69;100.00;98579.32;109218;1255;67297;-75
2023/12/31 10:37:37;;;;;;;29.20;24.20;;;;;;;5.78;100.00;98579.54;109212;1257;60264;-75
2023/12/31 10:40:21;;;;;;;28.80;24.20;;;;;;;5.85;100.00;98575.95;109156;1257;65158;-76
2023/12/31 10:42:55;;;;;;;29.80;25.20;;;;;;;5.93;100.00;98576.10;109103;1257;59018;-75
2023/12/31 10:45:23;;;;;;;30.80;23.90;;;;;;;6.04;100.00;98570.38;109389;1253;58985;-75
2023/12/31 10:47:51;;;;;;;26.80;22.50;;;;;;;6.17;100.00;98567.89;109389;1254;66141;-75
2023/12/31 10:50:23;;;;;;;28.20;23.80;;;;;;;6.30;100.00;98564.88;109425;1252;61042;-75
2023/12/31 10:52:53;;;;;;;35.40;31.70;;;;;;;6.44;100.00;98561.62;109380;1253;64244;-75
2023/12/31 10:55:20;;;;;;;27.50;24.20;;;;;;;6.57;100.00;98555.21;109387;1254;58996;-76
2023/12/31 10:57:47;;;;;;;30.20;24.80;;;;;;;6.66;100.00;98550.30;109389;1252;59097;-76
2023/12/31 11:00:15;;;;;;;27.80;23.00;;;;;;;6.70;100.00;98544.09;109419;1253;67153;-76
2023/12/31 11:02:43;;;;;;;27.80;24.10;;;;;;;6.73;100.00;98535.57;109407;1252;61144;-74
2023/12/31 11:05:10;;;;;;;29.00;25.70;;;;;;;6.79;100.00;98526.05;109368;1254;65218;-75
2023/12/31 11:07:36;;;;;;;26.60;23.20;;;;;;;6.84;100.00;98522.02;109270;1254;59192;-75
2023/12/31 11:10:04;;;;;;;25.50;22.60;;;;;;;6.88;100.00;98513.50;109367;1254;59053;-75